Terminal Aerodrome Forecast
Issued by NWS

Home | Current Version | Previous Version | Text Only | Print | Product List | Glossary On
Versions: 1 2 3 4 5 6 7 8 9 10 11 12 13 14 15 16 17 18 19
419
FTUS46 KSEW 140545
TAFOLM
TAF
KOLM 140545Z 1406/1506 19012KT 4SM -RA BR OVC011
     FM140900 19012KT 3SM -RA BR OVC006
     FM141500 19006KT 5SM BR SCT006 OVC011
     FM142100 19010KT 5SM -RA SCT008 BKN012 OVC020=

USA.gov is the U.S. government's official web portal to all federal, state and local government web resources and services.